Time;durP1;ratioP1;P1;durP2;ratioP2;P2;SDS_P1;SDS_P2;PMS_P1;PMS_P2;Temp;Humidity;BMP_temperature;BMP_pressure;BME280_temperature;BME280_humidity;BME280_pressure;Samples;Min_cycle;Max_cycle;Signal;HPM_P1;HPM_P2
2023/10/18 00:01:29;;;;;;;16.57;14.90;;;;;;;5.81;87.35;101170.75;4880235;29;20197;-66
2023/10/18 00:03:56;;;;;;;16.67;14.90;;;;;;;5.79;87.40;101172.63;4880165;29;20658;-66
2023/10/18 00:06:23;;;;;;;17.67;15.57;;;;;;;5.82;87.53;101167.09;4880372;29;20213;-65
2023/10/18 00:08:57;;;;;;;17.80;14.80;;;;;;;5.80;87.45;101158.44;4880171;29;20177;-65
2023/10/18 00:11:28;;;;;;;17.20;15.40;;;;;;;5.76;87.57;101149.00;4880069;29;20622;-65
2023/10/18 00:13:54;;;;;;;20.50;15.23;;;;;;;5.77;87.34;101145.38;4880646;29;20187;-66
2023/10/18 00:16:24;;;;;;;22.67;15.97;;;;;;;5.74;87.67;101142.94;4880490;29;20688;-66
2023/10/18 00:18:50;;;;;;;20.47;15.53;;;;;;;5.70;87.41;101142.31;4880295;29;20197;-66
2023/10/18 00:21:17;;;;;;;17.00;15.40;;;;;;;5.67;87.29;101137.25;4879884;29;20197;-66
2023/10/18 00:23:44;;;;;;;17.43;15.43;;;;;;;5.71;87.26;101121.94;4880492;29;20245;-66
2023/10/18 00:26:14;;;;;;;19.10;15.57;;;;;;;5.62;87.54;101120.81;4879830;29;20205;-66
2023/10/18 00:28:43;;;;;;;16.13;14.43;;;;;;;5.60;87.24;101124.53;4879902;29;20180;-66
2023/10/18 00:31:18;;;;;;;15.33;13.77;;;;;;;5.59;87.48;101126.34;4879664;29;20261;-66
2023/10/18 00:33:45;;;;;;;16.00;14.27;;;;;;;5.56;87.28;101123.06;4878481;29;20193;-66
2023/10/18 00:36:16;;;;;;;18.37;15.27;;;;;;;5.54;87.61;101120.50;4879688;29;20303;-66
2023/10/18 00:38:44;;;;;;;15.90;14.30;;;;;;;5.59;87.60;101115.72;4879783;29;20653;-66
2023/10/18 00:41:21;;;;;;;17.87;15.33;;;;;;;5.55;87.66;101122.22;4879678;29;20190;-66
2023/10/18 00:43:52;;;;;;;20.93;15.97;;;;;;;5.58;87.75;101115.81;4879659;29;20257;-66
2023/10/18 00:46:19;;;;;;;19.63;15.63;;;;;;;5.47;87.45;101109.47;4879685;29;20623;-66
2023/10/18 00:48:46;;;;;;;14.93;13.47;;;;;;;5.48;87.87;101108.53;4878375;29;20228;-66
2023/10/18 00:51:16;;;;;;;15.37;13.83;;;;;;;5.49;87.58;101104.06;4879475;29;20693;-66
2023/10/18 00:53:44;;;;;;;16.43;14.23;;;;;;;5.49;87.71;101107.56;4879532;29;20217;-66
2023/10/18 00:56:13;;;;;;;19.53;14.87;;;;;;;5.50;87.60;101101.31;4878328;29;20221;-66
2023/10/18 00:58:39;;;;;;;16.90;14.73;;;;;;;5.51;87.47;101105.69;4879372;29;20643;-66
2023/10/18 01:01:09;;;;;;;17.20;13.80;;;;;;;5.50;87.57;101108.44;4878211;29;20205;-66
2023/10/18 01:03:50;;;;;;;20.67;14.07;;;;;;;5.49;87.88;101099.63;4879977;29;20187;-66
2023/10/18 01:06:26;;;;;;;21.07;14.97;;;;;;;5.48;87.92;101097.06;4878471;29;20250;-66
2023/10/18 01:08:56;;;;;;;18.30;16.30;;;;;;;5.44;87.36;101099.09;4878210;29;20208;-66
2023/10/18 01:11:26;;;;;;;18.43;13.90;;;;;;;5.47;87.76;101098.06;4879851;29;20201;-66
2023/10/18 01:13:55;;;;;;;15.00;13.50;;;;;;;5.46;87.03;101101.66;4879402;29;20242;-66
2023/10/18 01:16:22;;;;;;;16.63;14.30;;;;;;;5.40;87.89;101097.63;4879373;29;20213;-66
2023/10/18 01:18:51;;;;;;;16.93;14.90;;;;;;;5.32;88.00;101092.03;4878059;29;20723;-66
2023/10/18 01:21:20;;;;;;;19.07;14.37;;;;;;;5.32;87.67;101092.03;4879561;29;20610;-66
2023/10/18 01:23:51;;;;;;;17.47;14.87;;;;;;;5.29;87.68;101089.59;4879512;29;20730;-66
2023/10/18 01:26:25;;;;;;;17.03;14.53;;;;;;;5.26;88.30;101081.84;4878001;29;20240;-66
2023/10/18 01:28:54;;;;;;;18.37;13.47;;;;;;;5.30;87.84;101082.50;4878071;29;20189;-66
2023/10/18 01:31:21;;;;;;;16.17;14.47;;;;;;;5.29;87.99;101086.09;4877909;29;20282;-66
2023/10/18 01:33:50;;;;;;;17.27;14.90;;;;;;;5.28;88.30;101077.28;4879431;29;20197;-66
2023/10/18 01:36:18;;;;;;;22.40;15.37;;;;;;;5.28;88.11;101076.44;4877836;29;20783;-66
2023/10/18 01:38:48;;;;;;;20.33;15.07;;;;;;;5.23;87.95;101073.28;4879146;29;20189;-66
2023/10/18 01:41:37;;;;;;;16.97;14.63;;;;;;;5.22;88.15;101066.31;4879685;29;20196;-66
2023/10/18 01:44:08;;;;;;;17.40;14.57;;;;;;;5.22;88.24;101059.16;4877889;29;20189;-66
2023/10/18 01:46:36;;;;;;;15.93;14.47;;;;;;;5.21;88.14;101054.00;4882666;29;20570;-65
2023/10/18 01:49:04;;;;;;;18.77;14.57;;;;;;;5.18;87.75;101059.53;4881351;29;20201;-65
2023/10/18 01:51:32;;;;;;;19.00;13.73;;;;;;;5.20;87.82;101058.44;4883017;29;20656;-65
2023/10/18 01:54:02;;;;;;;14.97;13.50;;;;;;;5.21;88.19;101054.84;4881304;29;20673;-65
2023/10/18 01:56:31;;;;;;;15.17;13.57;;;;;;;5.22;87.96;101055.69;4882697;29;20225;-66
2023/10/18 01:58:57;;;;;;;20.70;14.40;;;;;;;5.19;87.70;101047.94;4881097;29;20213;-66
2023/10/18 02:01:24;;;;;;;14.90;13.47;;;;;;;5.19;87.98;101054.09;4881168;29;20198;-66
2023/10/18 02:03:50;;;;;;;17.37;14.00;;;;;;;5.19;87.51;101053.25;4882925;29;20684;-66
2023/10/18 02:06:17;;;;;;;15.77;14.00;;;;;;;5.20;87.67;101053.16;4882490;29;20213;-66
2023/10/18 02:08:44;;;;;;;15.77;14.17;;;;;;;5.20;87.74;101055.78;4882554;29;20193;-66
2023/10/18 02:11:11;;;;;;;16.03;14.43;;;;;;;5.18;87.82;101052.38;4882732;29;20232;-66
2023/10/18 02:13:39;;;;;;;15.90;14.20;;;;;;;5.16;87.71;101054.31;4880990;29;20209;-66
2023/10/18 02:16:15;;;;;;;15.33;13.50;;;;;;;5.16;87.47;101053.47;4882088;29;20229;-66
2023/10/18 02:18:46;;;;;;;26.97;13.93;;;;;;;5.13;87.85;101046.59;4882432;29;20181;-66
2023/10/18 02:21:14;;;;;;;15.37;13.30;;;;;;;5.12;88.01;101049.34;4882369;29;20166;-66
2023/10/18 02:23:42;;;;;;;16.20;14.00;;;;;;;5.10;88.09;101051.25;4882530;29;20196;-66
2023/10/18 02:28:53;;;;;;;17.33;14.37;;;;;;;5.07;87.47;101049.66;4880767;29;20198;-66
2023/10/18 02:31:23;;;;;;;15.27;13.70;;;;;;;5.04;87.30;101045.44;4882357;29;20214;-66
2023/10/18 02:33:50;;;;;;;18.27;14.93;;;;;;;5.04;87.79;101034.84;4882115;29;20197;-66
2023/10/18 02:36:24;;;;;;;16.33;13.67;;;;;;;5.07;87.38;101031.97;4881731;29;20293;-66
2023/10/18 02:38:50;;;;;;;16.33;14.63;;;;;;;5.06;87.67;101032.06;4882070;29;20629;-66
2023/10/18 02:41:29;;;;;;;18.07;15.00;;;;;;;5.02;87.30;101038.53;4881673;29;20181;-66
2023/10/18 02:43:57;;;;;;;14.20;12.87;;;;;;;5.02;87.46;101030.59;4882008;29;20260;-66
2023/10/18 02:46:25;;;;;;;15.40;13.97;;;;;;;5.00;87.84;101024.56;4881807;29;20221;-66
2023/10/18 02:48:53;;;;;;;14.90;13.53;;;;;;;4.99;87.59;101023.72;4882210;29;20198;-66
2023/10/18 02:51:24;;;;;;;15.57;13.87;;;;;;;5.01;87.62;101020.94;4881677;29;20221;-66
2023/10/18 02:54:04;;;;;;;16.63;14.23;;;;;;;4.95;87.23;101014.28;4881765;29;20192;-66
2023/10/18 02:56:37;;;;;;;16.07;14.30;;;;;;;4.95;87.81;101009.00;4880722;29;20209;-66
2023/10/18 02:59:07;;;;;;;15.37;12.80;;;;;;;4.94;87.74;101006.44;4881388;29;20189;-66
2023/10/18 03:01:36;;;;;;;15.47;13.97;;;;;;;4.92;87.28;101008.38;4880163;29;20204;-66
2023/10/18 03:04:07;;;;;;;14.70;13.30;;;;;;;4.94;87.36;100990.56;4881300;29;20249;-66
2023/10/18 03:06:34;;;;;;;13.47;12.13;;;;;;;4.89;87.34;100996.19;4881526;29;20221;-66
2023/10/18 03:09:00;;;;;;;15.43;13.13;;;;;;;4.84;87.57;100986.84;4879913;29;20674;-66
2023/10/18 03:11:27;;;;;;;17.53;14.53;;;;;;;4.88;87.36;100981.22;4881262;29;20228;-66
2023/10/18 03:14:01;;;;;;;16.10;14.37;;;;;;;4.83;87.38;100978.09;4881108;29;20194;-66
2023/10/18 03:19:09;;;;;;;18.77;13.97;;;;;;;4.86;87.86;100971.72;4881342;29;20221;-66
2023/10/18 03:21:36;;;;;;;15.87;13.40;;;;;;;4.86;87.97;100963.75;4881600;29;20209;-66
2023/10/18 03:24:03;;;;;;;17.30;13.43;;;;;;;4.88;87.91;100969.81;4879655;29;20658;-66
2023/10/18 03:26:36;;;;;;;16.73;12.80;;;;;;;4.88;87.62;100964.50;4880897;29;20217;-66
2023/10/18 03:29:05;;;;;;;17.47;14.30;;;;;;;4.82;87.52;100960.50;4881169;29;20178;-66
2023/10/18 03:31:36;;;;;;;18.20;14.50;;;;;;;4.79;88.00;100954.56;4880758;29;20209;-66
2023/10/18 03:34:08;;;;;;;14.63;13.27;;;;;;;4.80;87.81;100961.53;4880406;29;20717;-66
2023/10/18 03:36:48;;;;;;;14.47;12.97;;;;;;;4.79;87.43;100966.03;4880673;29;20246;-66
2023/10/18 03:39:15;;;;;;;14.13;12.73;;;;;;;4.78;87.32;100955.53;4880720;29;20189;-66
2023/10/18 03:41:49;;;;;;;17.87;14.20;;;;;;;4.76;87.56;100952.97;4879407;29;20204;-66
2023/10/18 03:44:21;;;;;;;15.27;13.47;;;;;;;4.81;87.58;100948.19;4879405;29;20205;-66
2023/10/18 03:46:48;;;;;;;14.00;12.77;;;;;;;4.78;87.20;100943.13;4881333;29;20224;-66
2023/10/18 03:49:24;;;;;;;20.63;13.57;;;;;;;4.75;87.32;100931.91;4879257;29;20296;-66
2023/10/18 03:51:53;;;;;;;15.57;13.83;;;;;;;4.72;87.75;100934.75;4880897;29;20212;-66
2023/10/18 03:54:23;;;;;;;15.87;14.17;;;;;;;4.73;87.70;100929.38;4880377;29;20200;-66
2023/10/18 03:56:53;;;;;;;17.53;14.10;;;;;;;4.67;87.54;100937.72;4879073;29;20225;-66
2023/10/18 03:59:21;;;;;;;14.67;12.80;;;;;;;4.66;87.75;100933.41;4880317;29;20245;-66
2023/10/18 04:04:37;;;;;;;15.03;13.37;;;;;;;4.73;87.62;100920.56;4880519;29;20272;-66
2023/10/18 04:07:12;;;;;;;14.10;12.87;;;;;;;4.74;87.76;100923.13;4880206;29;20213;-66
2023/10/18 04:12:19;;;;;;;16.57;13.57;;;;;;;4.64;87.76;100907.97;4880314;29;20229;-66
2023/10/18 04:15:49;;;;;;;15.07;13.40;;;;;;;4.71;87.15;100902.13;4880572;29;20712;-66
2023/10/18 04:17:42;;;;;;;14.53;13.13;;;;;;;4.71;87.36;100898.66;4867700;29;20745;-66
2023/10/18 04:22:38;;;;;;;17.63;13.50;;;;;;;4.73;87.47;100889.63;4880338;29;20181;-66
2023/10/18 04:25:25;;;;;;;15.87;13.03;;;;;;;4.73;87.63;100892.28;4880340;29;20602;-67
2023/10/18 04:27:53;;;;;;;15.83;13.20;;;;;;;4.72;87.74;100887.09;4880223;29;20177;-66
2023/10/18 04:30:22;;;;;;;18.50;12.63;;;;;;;4.69;87.84;100882.88;4879749;29;20189;-66
2023/10/18 04:32:54;;;;;;;14.47;12.90;;;;;;;4.69;87.29;100877.56;4879963;29;20193;-66
2023/10/18 04:35:30;;;;;;;15.57;13.33;;;;;;;4.70;87.67;100873.13;4879946;29;20223;-66
2023/10/18 04:37:59;;;;;;;14.87;13.47;;;;;;;4.69;87.53;100864.34;4879733;29;20188;-66
2023/10/18 04:40:26;;;;;;;21.43;13.50;;;;;;;4.74;87.69;100870.16;4879554;29;20190;-68
2023/10/18 04:42:56;;;;;;;15.20;13.40;;;;;;;4.75;87.77;100866.56;4879607;29;20182;-69
2023/10/18 04:45:24;;;;;;;18.97;15.13;;;;;;;4.73;87.85;100870.25;4879983;29;20220;-69
2023/10/18 04:47:57;;;;;;;14.70;12.50;;;;;;;4.73;87.84;100860.50;4879460;29;20193;-69
2023/10/18 04:50:32;;;;;;;21.10;14.53;;;;;;;4.74;87.40;100870.16;4879707;29;20257;-69
2023/10/18 04:53:00;;;;;;;15.50;12.80;;;;;;;4.69;87.88;100864.34;4879759;29;20189;-69
2023/10/18 04:55:27;;;;;;;14.10;12.63;;;;;;;4.71;88.01;100851.81;4879380;29;20205;-69
2023/10/18 04:57:53;;;;;;;16.53;13.27;;;;;;;4.70;87.91;100846.66;4879251;29;20260;-69
2023/10/18 05:00:35;;;;;;;21.33;14.77;;;;;;;4.65;87.72;100844.34;4879419;29;20249;-69
2023/10/18 05:03:13;;;;;;;15.70;14.03;;;;;;;4.68;87.31;100852.03;4880466;29;20186;-70
2023/10/18 05:05:44;;;;;;;15.17;13.67;;;;;;;4.67;87.77;100846.88;4879924;29;20745;-69
2023/10/18 05:08:15;;;;;;;14.60;13.03;;;;;;;4.70;87.51;100842.19;4879273;29;20197;-69
2023/10/18 05:10:45;;;;;;;16.87;13.10;;;;;;;4.68;87.03;100838.81;4879411;29;20241;-69
2023/10/18 05:16:09;;;;;;;17.00;12.90;;;;;;;4.66;87.61;100840.75;4879464;29;20773;-69
2023/10/18 05:18:37;;;;;;;20.53;13.77;;;;;;;4.62;87.48;100836.63;4879604;29;20189;-69
2023/10/18 05:21:08;;;;;;;16.10;13.97;;;;;;;4.63;87.31;100835.63;4882203;29;20258;-69
2023/10/18 05:23:35;;;;;;;20.07;14.43;;;;;;;4.64;87.63;100839.13;4883097;29;20179;-69
2023/10/18 05:28:52;;;;;;;16.60;13.77;;;;;;;4.64;87.23;100841.78;4883254;29;20189;-69
2023/10/18 05:42:00;;;;;;;15.60;13.37;;;;;;;4.69;86.86;100818.47;4883051;29;20188;-69
2023/10/18 05:44:29;;;;;;;20.57;14.47;;;;;;;4.69;87.31;100818.47;4882692;29;20645;-69
2023/10/18 05:46:57;;;;;;;18.80;12.23;;;;;;;4.67;87.25;100815.91;4882631;29;20772;-69
2023/10/18 05:49:23;;;;;;;18.73;14.00;;;;;;;4.69;87.05;100818.47;4882629;29;20189;-69
2023/10/18 05:52:16;;;;;;;14.67;13.10;;;;;;;4.67;87.47;100813.28;4882809;29;20663;-69
2023/10/18 05:54:43;;;;;;;13.43;12.23;;;;;;;4.68;86.63;100806.19;4882494;29;20613;-69
2023/10/18 05:57:15;;;;;;;13.40;11.80;;;;;;;4.67;86.90;100805.34;4882419;29;20304;-69
2023/10/18 05:59:46;;;;;;;21.53;14.13;;;;;;;4.66;86.72;100802.81;4882719;29;20718;-69
2023/10/18 06:02:22;;;;;;;14.90;12.40;;;;;;;4.68;86.82;100800.88;4882444;29;20233;-69
2023/10/18 06:04:51;;;;;;;29.07;13.67;;;;;;;4.59;86.68;100789.16;4882646;29;20656;-69
2023/10/18 06:07:22;;;;;;;15.17;13.37;;;;;;;4.56;86.80;100784.94;4882212;29;20836;-69
2023/10/18 06:12:27;;;;;;;15.00;12.70;;;;;;;4.54;87.09;100776.25;4882773;29;20630;-69
2023/10/18 06:14:54;;;;;;;16.00;13.80;;;;;;;4.54;86.89;100784.19;4882474;29;20182;-69
2023/10/18 06:17:22;;;;;;;19.17;13.50;;;;;;;4.56;87.14;100773.50;4882290;29;20619;-69
2023/10/18 06:19:52;;;;;;;18.20;13.13;;;;;;;4.60;87.24;100775.81;4882336;29;20197;-69
2023/10/18 06:22:39;;;;;;;15.83;13.33;;;;;;;4.59;87.09;100767.97;4881982;29;20586;-69
2023/10/18 06:25:09;;;;;;;14.23;12.63;;;;;;;4.74;86.29;100764.22;4882162;29;20525;-68
2023/10/18 06:27:39;;;;;;;14.03;12.63;;;;;;;4.66;86.46;100773.69;4881908;29;20253;-69
2023/10/18 06:30:14;;;;;;;16.43;13.77;;;;;;;4.68;86.39;100764.66;4881782;29;20558;-69
2023/10/18 06:32:43;;;;;;;15.07;12.67;;;;;;;4.74;86.34;100771.31;4882084;29;20260;-69
2023/10/18 06:35:15;;;;;;;13.67;12.00;;;;;;;4.75;86.32;100775.66;4882038;29;20201;-69
2023/10/18 06:37:42;;;;;;;15.63;13.60;;;;;;;4.74;86.67;100774.81;4882100;29;20218;-69
2023/10/18 06:42:57;;;;;;;13.63;12.43;;;;;;;4.74;86.39;100764.22;4882024;29;20607;-69
2023/10/18 06:45:25;;;;;;;13.97;12.50;;;;;;;4.88;86.09;100771.97;4881533;29;20225;-69
2023/10/18 06:47:55;;;;;;;20.30;12.40;;;;;;;4.84;86.37;100777.59;4881569;29;20684;-69
2023/10/18 06:50:26;;;;;;;13.73;12.33;;;;;;;4.80;86.38;100769.03;4881803;29;20200;-69
2023/10/18 06:52:54;;;;;;;18.00;12.87;;;;;;;4.83;85.69;100771.50;4881719;29;20206;-69
2023/10/18 06:55:35;;;;;;;15.73;12.90;;;;;;;4.84;85.85;100775.81;4881592;29;20209;-68
2023/10/18 06:58:13;;;;;;;13.17;11.90;;;;;;;4.87;86.14;100775.59;4881352;29;20205;-69
2023/10/18 07:00:43;;;;;;;12.47;11.50;;;;;;;4.91;85.92;100776.22;4881625;29;20244;-69
2023/10/18 07:03:24;;;;;;;15.33;13.23;;;;;;;5.01;85.98;100777.19;4881345;29;20181;-69
2023/10/18 07:05:54;;;;;;;14.73;12.77;;;;;;;4.98;85.86;100774.78;4881217;29;20268;-68
2023/10/18 07:08:32;;;;;;;18.07;12.73;;;;;;;5.01;85.79;100759.50;4881719;29;20553;-69
2023/10/18 07:11:02;;;;;;;14.17;12.80;;;;;;;4.98;85.99;100751.78;4881684;29;20244;-69
2023/10/18 07:13:48;;;;;;;14.03;11.87;;;;;;;4.97;85.97;100738.66;4881075;29;20185;-69
2023/10/18 07:16:16;;;;;;;24.23;12.47;;;;;;;4.98;85.97;100735.03;4881150;29;20225;-69
2023/10/18 07:18:44;;;;;;;14.87;12.10;;;;;;;5.06;85.59;100727.34;4880981;29;20666;-69
2023/10/18 07:21:18;;;;;;;13.33;12.23;;;;;;;5.07;85.58;100734.34;4881012;29;20193;-69
2023/10/18 07:23:54;;;;;;;13.83;12.63;;;;;;;5.11;85.56;100737.59;4880987;29;20168;-69
2023/10/18 07:26:22;;;;;;;13.53;12.20;;;;;;;5.15;85.25;100731.97;4881140;29;20694;-69
2023/10/18 07:28:49;;;;;;;13.77;12.53;;;;;;;5.20;85.04;100724.50;4880826;29;20206;-69
2023/10/18 07:31:17;;;;;;;15.30;13.13;;;;;;;5.28;84.81;100726.56;4880767;29;20189;-69
2023/10/18 07:33:44;;;;;;;15.53;13.30;;;;;;;5.32;84.52;100720.06;4881010;29;20197;-69
2023/10/18 07:36:12;;;;;;;19.07;12.47;;;;;;;5.38;84.22;100715.16;4880647;29;20216;-69
2023/10/18 07:38:47;;;;;;;21.30;14.47;;;;;;;5.38;84.91;100709.84;4880345;29;20496;-69
2023/10/18 07:41:18;;;;;;;14.03;12.20;;;;;;;5.44;84.39;100709.34;4880982;29;20681;-69
2023/10/18 07:43:44;;;;;;;18.57;12.77;;;;;;;5.55;84.32;100703.22;4880265;29;20242;-69
2023/10/18 07:46:24;;;;;;;13.30;11.90;;;;;;;5.63;84.38;100700.81;4880466;29;20209;-69
2023/10/18 07:48:53;;;;;;;14.03;12.43;;;;;;;5.67;84.27;100694.31;4880819;29;20181;-69
2023/10/18 07:51:23;;;;;;;33.47;12.80;;;;;;;5.68;83.79;100687.19;4880432;29;20258;-69
2023/10/18 07:53:54;;;;;;;13.90;12.63;;;;;;;5.77;83.56;100683.81;4880762;29;20188;-69
2023/10/18 07:56:27;;;;;;;13.07;11.80;;;;;;;5.76;83.76;100682.13;4880567;29;20648;-69
2023/10/18 07:58:54;;;;;;;15.10;11.33;;;;;;;5.84;83.57;100683.19;4880405;29;20201;-69
2023/10/18 08:01:46;;;;;;;14.93;11.47;;;;;;;5.86;83.06;100683.94;4880267;29;20197;-69
2023/10/18 08:04:17;;;;;;;16.70;12.07;;;;;;;5.96;83.64;100674.28;4880533;29;20190;-69
2023/10/18 08:06:48;;;;;;;13.17;11.87;;;;;;;6.05;83.16;100678.00;4880452;29;20638;-69
2023/10/18 08:09:21;;;;;;;12.97;11.70;;;;;;;6.18;82.82;100669.91;4880425;29;20645;-69
2023/10/18 08:11:47;;;;;;;13.17;11.97;;;;;;;6.17;82.25;100662.91;4880653;29;20201;-69
2023/10/18 08:14:17;;;;;;;12.13;11.13;;;;;;;6.26;81.88;100667.47;4880076;29;20193;-69
2023/10/18 08:16:43;;;;;;;13.00;11.67;;;;;;;6.35;81.87;100667.56;4879957;29;20231;-69
2023/10/18 08:19:13;;;;;;;13.83;12.33;;;;;;;6.39;82.23;100662.84;4880245;29;20233;-69
2023/10/18 08:21:39;;;;;;;12.60;11.50;;;;;;;6.43;81.97;100657.16;4879875;29;20189;-69
2023/10/18 08:24:08;;;;;;;13.97;10.80;;;;;;;6.57;80.87;100649.84;4878753;29;20217;-69
2023/10/18 08:26:47;;;;;;;13.17;11.83;;;;;;;6.54;81.21;100645.63;4879870;29;20217;-69
2023/10/18 08:29:15;;;;;;;12.33;11.17;;;;;;;6.58;80.84;100649.69;4880029;29;20264;-69
2023/10/18 08:31:48;;;;;;;14.90;11.60;;;;;;;6.62;80.88;100648.47;4879740;29;20221;-69
2023/10/18 08:34:15;;;;;;;12.33;11.23;;;;;;;6.66;80.07;100635.81;4880070;29;20192;-69
2023/10/18 08:36:45;;;;;;;12.00;10.83;;;;;;;6.71;80.04;100630.91;4879906;29;20213;-69
2023/10/18 08:39:12;;;;;;;17.77;11.73;;;;;;;6.82;80.06;100628.22;4880018;29;20194;-69
2023/10/18 08:41:54;;;;;;;13.57;10.40;;;;;;;6.95;80.34;100622.69;4880192;29;20201;-69
2023/10/18 08:44:24;;;;;;;12.20;11.07;;;;;;;7.06;79.45;100619.94;4880145;29;20257;-69
2023/10/18 08:47:04;;;;;;;13.13;11.77;;;;;;;7.10;79.73;100622.22;4879799;29;20221;-69
2023/10/18 08:49:33;;;;;;;11.30;10.30;;;;;;;7.28;79.34;100614.47;4880087;29;20193;-69
2023/10/18 08:52:08;;;;;;;12.97;11.73;;;;;;;7.35;78.98;100615.63;4879496;29;20220;-69
2023/10/18 08:54:41;;;;;;;13.67;11.03;;;;;;;7.45;79.10;100613.84;4879489;29;20192;-69
2023/10/18 08:57:11;;;;;;;11.07;10.27;;;;;;;7.59;77.85;100612.63;4879326;29;20209;-69
2023/10/18 08:59:51;;;;;;;11.90;10.77;;;;;;;7.69;77.89;100609.00;4879463;29;20662;-69
2023/10/18 09:02:21;;;;;;;10.90;10.03;;;;;;;7.83;77.67;100615.78;4879801;29;20245;-69
2023/10/18 09:04:52;;;;;;;11.60;10.47;;;;;;;7.84;76.21;100605.97;4879460;29;20236;-69
2023/10/18 09:10:33;;;;;;;10.37;9.47;;;;;;;8.06;75.64;100605.75;4867648;29;20213;-69
2023/10/18 09:13:33;;;;;;;11.33;10.43;;;;;;;8.10;75.49;100594.69;4879546;29;20209;-69
2023/10/18 09:16:04;;;;;;;13.80;10.90;;;;;;;8.21;75.71;100601.69;4879488;29;20295;-69
2023/10/18 09:18:31;;;;;;;12.33;11.07;;;;;;;8.30;74.90;100590.22;4879368;29;20688;-69
2023/10/18 09:21:17;;;;;;;11.20;10.20;;;;;;;8.43;74.00;100587.28;4879506;29;20257;-70
2023/10/18 09:23:45;;;;;;;18.27;10.60;;;;;;;8.52;73.72;100597.09;4879315;29;20650;-69
2023/10/18 09:26:12;;;;;;;11.43;10.27;;;;;;;8.63;73.27;100592.44;4879194;29;20257;-69
2023/10/18 09:28:42;;;;;;;10.87;10.07;;;;;;;8.63;73.37;100592.44;4879809;29;20193;-69
2023/10/18 09:31:12;;;;;;;11.33;10.23;;;;;;;8.75;73.74;100577.13;4879252;29;20197;-69
2023/10/18 09:33:48;;;;;;;12.27;10.77;;;;;;;8.89;73.23;100578.50;4879154;29;20677;-69
2023/10/18 09:36:20;;;;;;;12.03;10.97;;;;;;;8.93;71.56;100574.56;4879418;29;20212;-69
2023/10/18 09:38:48;;;;;;;10.90;9.83;;;;;;;8.97;72.28;100566.13;4879666;29;20185;-69
2023/10/18 09:41:16;;;;;;;11.57;10.43;;;;;;;9.05;72.32;100554.72;4879193;29;20273;-69
2023/10/18 09:43:44;;;;;;;11.50;10.50;;;;;;;9.14;71.45;100557.38;4879398;29;20242;-69
2023/10/18 09:46:10;;;;;;;10.67;9.73;;;;;;;9.23;72.06;100555.66;4879046;29;20236;-69
2023/10/18 09:48:41;;;;;;;9.30;8.60;;;;;;;9.33;71.82;100548.44;4879383;29;20281;-69
2023/10/18 09:51:14;;;;;;;10.33;9.63;;;;;;;9.40;71.28;100540.69;4879315;29;20532;-69
2023/10/18 09:53:42;;;;;;;13.20;10.03;;;;;;;9.46;71.42;100546.25;4878997;29;20230;-69
2023/10/18 09:56:17;;;;;;;10.80;10.00;;;;;;;9.58;70.02;100544.22;4879162;29;20270;-69
2023/10/18 09:58:46;;;;;;;10.70;10.00;;;;;;;9.73;70.43;100537.38;4878925;29;20669;-69
2023/10/18 10:01:15;;;;;;;10.50;9.67;;;;;;;9.96;70.35;100532.44;4879114;29;20204;-69
2023/10/18 10:03:50;;;;;;;10.57;9.77;;;;;;;10.17;70.53;100525.00;4878826;29;20178;-69
2023/10/18 10:06:23;;;;;;;9.60;9.00;;;;;;;10.27;69.93;100531.06;4880917;29;20300;-70
2023/10/18 10:08:54;;;;;;;10.60;9.50;;;;;;;10.35;68.97;100536.50;4882607;29;20607;-70
2023/10/18 10:11:29;;;;;;;10.87;10.03;;;;;;;10.39;68.23;100534.38;4882826;29;20210;-70
2023/10/18 10:14:00;;;;;;;10.13;9.43;;;;;;;10.34;68.82;100533.97;4882737;29;20196;-69
2023/10/18 10:16:31;;;;;;;13.07;10.13;;;;;;;10.24;67.93;100530.56;4882175;29;20578;-69
2023/10/18 10:19:04;;;;;;;9.67;9.17;;;;;;;10.18;67.80;100523.16;4882126;29;20194;-69
2023/10/18 10:21:34;;;;;;;10.80;9.73;;;;;;;10.13;68.03;100522.75;4882440;29;20189;-69
2023/10/18 10:27:13;;;;;;;10.47;9.63;;;;;;;10.05;68.68;100523.53;4882229;29;20605;-69
2023/10/18 10:29:39;;;;;;;9.70;9.03;;;;;;;10.02;69.00;100519.31;4882258;29;20189;-69
2023/10/18 10:32:06;;;;;;;11.30;10.40;;;;;;;10.06;69.00;100515.34;4881815;29;20201;-69
2023/10/18 10:34:37;;;;;;;9.60;8.90;;;;;;;10.16;68.54;100511.78;4882076;29;20232;-69
2023/10/18 10:37:08;;;;;;;10.83;10.00;;;;;;;10.10;68.88;100503.34;4881738;29;20256;-69
2023/10/18 10:39:44;;;;;;;15.03;9.70;;;;;;;10.18;68.77;100493.78;4881741;29;20231;-69
2023/10/18 10:45:30;;;;;;;10.20;9.27;;;;;;;10.27;68.39;100476.81;4881548;29;20548;-70
2023/10/18 10:48:15;;;;;;;12.23;9.30;;;;;;;10.32;68.61;100470.00;4882203;29;20185;-69
2023/10/18 10:50:53;;;;;;;9.10;8.30;;;;;;;10.40;68.73;100464.72;4882118;29;20196;-69
2023/10/18 10:53:45;;;;;;;9.73;9.13;;;;;;;10.48;68.26;100451.41;4881730;29;20613;-69
2023/10/18 10:56:19;;;;;;;10.53;9.23;;;;;;;10.57;67.89;100446.94;4881708;29;20227;-69
2023/10/18 10:59:03;;;;;;;10.13;9.20;;;;;;;10.63;67.87;100445.47;4881430;29;20189;-69
2023/10/18 11:04:57;;;;;;;9.13;8.57;;;;;;;10.82;67.04;100432.69;4881289;29;20201;-69
2023/10/18 11:07:26;;;;;;;9.17;8.60;;;;;;;10.78;66.38;100433.16;4881814;29;20268;-69
2023/10/18 11:10:06;;;;;;;10.17;9.37;;;;;;;10.81;66.47;100425.69;4881501;29;20196;-69
2023/10/18 11:12:34;;;;;;;8.23;7.83;;;;;;;10.81;66.50;100420.34;4881418;29;20701;-69
2023/10/18 11:15:01;;;;;;;8.23;7.53;;;;;;;10.98;67.16;100416.75;4881078;29;20201;-69
2023/10/18 11:17:29;;;;;;;12.07;8.50;;;;;;;11.14;66.49;100404.41;4880136;29;20197;-69
2023/10/18 11:20:07;;;;;;;9.23;8.80;;;;;;;11.34;65.98;100395.91;4881057;29;20221;-69
2023/10/18 11:22:35;;;;;;;10.40;9.17;;;;;;;11.50;64.79;100388.94;4881073;29;20585;-69
2023/10/18 11:25:03;;;;;;;8.37;7.73;;;;;;;11.65;65.16;100371.19;4881467;29;20197;-69
2023/10/18 11:27:33;;;;;;;8.83;8.03;;;;;;;11.85;66.73;100375.22;4881221;29;20197;-69
2023/10/18 11:30:17;;;;;;;14.30;8.33;;;;;;;12.03;64.13;100365.19;4881187;29;20185;-69
2023/10/18 11:32:55;;;;;;;8.67;8.17;;;;;;;12.17;64.46;100359.13;4881286;29;20201;-69
2023/10/18 11:35:42;;;;;;;8.17;7.60;;;;;;;12.36;64.68;100352.53;4880753;29;20269;-69
2023/10/18 11:38:10;;;;;;;8.23;7.57;;;;;;;12.49;62.97;100349.31;4881325;29;20181;-69
2023/10/18 11:40:44;;;;;;;7.43;7.20;;;;;;;12.49;63.26;100341.25;4880920;29;20197;-70
2023/10/18 11:43:11;;;;;;;8.43;7.93;;;;;;;12.49;62.69;100331.38;4881136;29;20189;-69
2023/10/18 11:45:39;;;;;;;8.57;8.03;;;;;;;12.51;61.99;100331.22;4880712;29;20711;-70
2023/10/18 11:48:09;;;;;;;7.70;7.20;;;;;;;12.58;62.74;100314.25;4880567;29;20220;-69
2023/10/18 11:50:39;;;;;;;9.47;7.70;;;;;;;12.71;63.07;100313.69;4881077;29;20185;-70
2023/10/18 11:53:12;;;;;;;8.27;7.67;;;;;;;12.86;62.23;100308.41;4880424;29;20685;-70
2023/10/18 11:56:08;;;;;;;9.83;7.70;;;;;;;12.93;61.14;100293.28;4880688;29;20221;-69
2023/10/18 11:58:35;;;;;;;19.53;6.87;;;;;;;12.96;61.40;100291.06;4880517;29;20276;-69
2023/10/18 12:01:17;;;;;;;9.07;8.30;;;;;;;12.87;61.16;100289.44;4880614;29;20190;-69
2023/10/18 12:03:44;;;;;;;13.13;7.10;;;;;;;12.88;60.38;100284.91;4880654;29;20173;-69
2023/10/18 12:06:11;;;;;;;8.13;7.50;;;;;;;12.75;59.81;100280.97;4880395;29;20228;-69
2023/10/18 12:11:44;;;;;;;7.00;6.77;;;;;;;12.82;59.89;100279.25;4823010;29;20210;-69
2023/10/18 12:14:11;;;;;;;7.27;6.90;;;;;;;12.83;60.43;100275.56;4868361;29;20304;-69
2023/10/18 12:16:37;;;;;;;8.33;7.73;;;;;;;12.91;61.35;100268.47;4879972;29;20265;-70
2023/10/18 12:19:06;;;;;;;7.97;7.40;;;;;;;12.94;60.66;100250.19;4880048;29;20197;-69
2023/10/18 12:21:33;;;;;;;7.43;6.90;;;;;;;13.03;59.12;100245.56;4880258;29;20211;-69
2023/10/18 12:24:03;;;;;;;7.50;7.23;;;;;;;13.12;60.32;100244.53;4880210;29;20722;-69
2023/10/18 12:26:34;;;;;;;7.70;7.07;;;;;;;13.11;57.97;100234.81;4878728;29;20213;-69
2023/10/18 12:29:07;;;;;;;7.50;6.50;;;;;;;13.06;59.50;100229.13;4879930;29;20581;-70